Time;durP1;ratioP1;P1;durP2;ratioP2;P2;SDS_P1;SDS_P2;PMS_P1;PMS_P2;Temp;Humidity;BMP_temperature;BMP_pressure;BME280_temperature;BME280_humidity;BME280_pressure;Samples;Min_cycle;Max_cycle;Signal;HPM_P1;HPM_P2
2021/01/30 00:01:00;;;;;;;23.08;12.07;;;;;;;-2.10;95.09;99060.66;4970127;28;20042;-79
2021/01/30 00:03:28;;;;;;;27.33;12.23;;;;;;;-2.24;95.88;99061.09;4956663;28;20105;-81
2021/01/30 00:05:55;;;;;;;24.60;12.20;;;;;;;-2.19;95.91;99048.06;4962968;28;20047;-79
2021/01/30 00:08:22;;;;;;;21.63;12.15;;;;;;;-2.16;95.16;99048.81;4976957;28;20531;-78
2021/01/30 00:10:50;;;;;;;25.10;12.20;;;;;;;-2.20;95.03;99047.22;4955783;28;20089;-77
2021/01/30 00:13:17;;;;;;;23.77;12.48;;;;;;;-2.25;95.70;99045.66;4973210;28;20097;-78
2021/01/30 00:15:44;;;;;;;25.70;12.57;;;;;;;-2.23;95.37;99043.91;4958153;28;20141;-80
2021/01/30 00:18:15;;;;;;;21.92;11.15;;;;;;;-2.24;95.93;99050.81;4968522;28;20058;-79
2021/01/30 00:20:42;;;;;;;24.45;11.50;;;;;;;-2.21;95.49;99052.41;4952395;28;20054;-80
2021/01/30 00:23:09;;;;;;;30.15;12.25;;;;;;;-2.22;95.47;99061.88;4967942;28;20061;-80
2021/01/30 00:25:37;;;;;;;24.85;12.15;;;;;;;-2.24;95.00;99068.84;4953069;28;20054;-78
2021/01/30 00:28:05;;;;;;;32.00;13.07;;;;;;;-2.22;95.88;99071.34;4972718;28;20084;-77
2021/01/30 00:30:33;;;;;;;30.33;11.75;;;;;;;-2.24;95.39;99066.25;4976224;28;20041;-78
2021/01/30 00:33:02;;;;;;;22.00;11.20;;;;;;;-2.30;95.82;99066.44;4965020;28;20031;-78
2021/01/30 00:35:34;;;;;;;27.65;13.05;;;;;;;-2.29;95.37;99068.16;5004289;28;20038;-80
2021/01/30 00:38:26;;;;;;;20.60;10.85;;;;;;;-2.34;95.56;99067.44;4989202;28;20049;-80
2021/01/30 00:40:53;;;;;;;25.23;13.60;;;;;;;-2.25;95.22;99067.16;4982826;28;20122;-80
2021/01/30 00:43:20;;;;;;;27.40;11.80;;;;;;;-2.37;95.56;99072.69;4991207;28;20094;-79
2021/01/30 00:45:48;;;;;;;26.55;13.32;;;;;;;-2.42;95.57;99062.53;4970742;28;20436;-78
2021/01/30 00:48:15;;;;;;;30.77;12.73;;;;;;;-2.38;96.11;99064.13;4969184;28;20058;-80
2021/01/30 00:50:42;;;;;;;26.50;12.98;;;;;;;-2.46;95.66;99070.41;4952894;28;20047;-80
2021/01/30 00:53:09;;;;;;;26.17;12.73;;;;;;;-2.43;96.28;99070.28;4970969;28;20047;-80
2021/01/30 00:55:36;;;;;;;23.45;12.50;;;;;;;-2.38;96.69;99065.84;4982047;28;20039;-79
2021/01/30 00:58:03;;;;;;;32.65;14.65;;;;;;;-2.35;96.56;99068.31;4987259;28;20051;-79
2021/01/30 01:00:30;;;;;;;36.42;15.90;;;;;;;-2.35;96.17;99078.63;4985727;28;20046;-80
2021/01/30 01:02:58;;;;;;;26.75;13.15;;;;;;;-2.29;96.14;99078.47;4990688;28;20058;-79
2021/01/30 01:05:25;;;;;;;28.42;13.52;;;;;;;-2.34;96.19;99077.75;4977884;28;20050;-78
2021/01/30 01:07:52;;;;;;;30.80;14.80;;;;;;;-2.28;96.17;99082.72;4981893;28;20202;-78
2021/01/30 01:10:21;;;;;;;29.73;14.85;;;;;;;-2.35;96.53;99084.63;4992687;28;20150;-80
2021/01/30 01:12:49;;;;;;;29.52;14.10;;;;;;;-2.32;96.23;99076.81;4976482;28;20070;-80
2021/01/30 01:15:18;;;;;;;36.20;14.05;;;;;;;-2.28;96.12;99084.44;4964113;28;20214;-79
2021/01/30 01:17:46;;;;;;;28.80;14.68;;;;;;;-2.32;96.58;99084.53;4967866;28;20055;-80
2021/01/30 01:20:16;;;;;;;27.60;14.73;;;;;;;-2.33;96.29;99080.28;4978484;28;20497;-80
2021/01/30 01:22:43;;;;;;;27.13;14.63;;;;;;;-2.41;97.10;99086.56;4983492;28;20283;-78
2021/01/30 01:25:11;;;;;;;28.60;14.77;;;;;;;-2.36;96.87;99090.69;5001740;28;20110;-78
2021/01/30 01:27:38;;;;;;;22.80;12.80;;;;;;;-2.33;96.36;99079.44;4984129;28;20392;-79
2021/01/30 01:30:08;;;;;;;26.85;13.82;;;;;;;-2.37;96.62;99080.44;4985761;28;20086;-79
2021/01/30 01:32:38;;;;;;;33.38;15.27;;;;;;;-2.33;96.01;99072.56;4980975;28;20062;-78
2021/01/30 01:35:06;;;;;;;25.45;14.52;;;;;;;-2.42;96.34;99084.88;4985634;28;20585;-80
2021/01/30 01:37:33;;;;;;;26.45;13.93;;;;;;;-2.42;96.54;99090.03;4985256;28;20043;-79
2021/01/30 01:40:00;;;;;;;25.42;13.27;;;;;;;-2.50;97.13;99087.69;4986084;28;20114;-78
2021/01/30 01:42:30;;;;;;;28.50;14.57;;;;;;;-2.42;96.80;99095.19;4984213;28;20117;-79
2021/01/30 01:44:57;;;;;;;28.52;14.73;;;;;;;-2.41;96.84;99089.13;4984593;28;20085;-78
2021/01/30 01:47:50;;;;;;;27.40;14.43;;;;;;;-2.33;96.36;99098.31;4985446;28;20059;-78
2021/01/30 01:50:56;;;;;;;27.67;14.98;;;;;;;-2.44;96.85;99108.09;4965324;28;20065;-78
2021/01/30 01:53:27;;;;;;;27.35;14.30;;;;;;;-2.38;97.18;99099.38;4980174;28;20093;-78
2021/01/30 01:56:02;;;;;;;30.70;15.05;;;;;;;-2.43;96.74;99096.06;4978674;28;20462;-78
2021/01/30 01:58:31;;;;;;;29.42;14.23;;;;;;;-2.31;96.94;99087.94;4976151;28;20407;-80
2021/01/30 02:00:59;;;;;;;19.48;11.02;;;;;;;-2.44;96.02;99095.22;4975504;28;20058;-80
2021/01/30 02:03:26;;;;;;;18.42;9.13;;;;;;;-2.56;96.01;99104.19;4985961;28;20080;-80
2021/01/30 02:05:53;;;;;;;19.10;10.82;;;;;;;-2.62;95.83;99104.34;4962432;28;20102;-80
2021/01/30 02:08:23;;;;;;;19.63;9.68;;;;;;;-2.50;95.70;99110.03;4971052;28;20640;-79
2021/01/30 02:10:51;;;;;;;20.75;9.60;;;;;;;-2.50;96.34;99115.19;4966831;28;20201;-80
2021/01/30 02:13:23;;;;;;;14.57;7.63;;;;;;;-2.53;95.25;99104.97;4967227;28;20185;-81
2021/01/30 02:16:00;;;;;;;15.13;8.32;;;;;;;-2.62;95.66;99099.19;4957837;28;20438;-80
2021/01/30 02:19:12;;;;;;;16.65;8.43;;;;;;;-2.50;95.49;99103.16;4972488;28;20069;-81
2021/01/30 02:22:17;;;;;;;16.65;8.95;;;;;;;-2.58;96.38;99105.94;4962407;28;20057;-80
2021/01/30 02:25:16;;;;;;;17.20;10.15;;;;;;;-2.48;96.32;99098.78;4967322;28;20102;-78
2021/01/30 02:28:03;;;;;;;16.85;9.43;;;;;;;-2.53;95.85;99110.13;4983721;28;20058;-80
2021/01/30 02:31:08;;;;;;;17.92;8.90;;;;;;;-2.59;96.09;99109.41;4990018;28;20051;-80
2021/01/30 02:34:07;;;;;;;17.77;9.23;;;;;;;-2.61;96.53;99123.25;4984135;28;20046;-80
2021/01/30 02:37:14;;;;;;;19.80;10.75;;;;;;;-2.65;96.69;99114.75;4985572;28;20030;-81
2021/01/30 02:39:52;;;;;;;19.60;9.75;;;;;;;-2.73;97.68;99115.88;4961896;28;20050;-80
2021/01/30 02:42:23;;;;;;;25.27;10.98;;;;;;;-2.59;96.95;99116.31;4975069;28;20724;-80
2021/01/30 02:45:04;;;;;;;18.60;10.75;;;;;;;-2.55;96.73;99110.16;4972472;28;20058;-79
2021/01/30 02:47:38;;;;;;;21.23;11.63;;;;;;;-2.70;97.29;99118.34;4977680;28;20182;-78
2021/01/30 02:50:18;;;;;;;19.83;11.43;;;;;;;-2.75;97.86;99115.91;4981300;28;20058;-79
2021/01/30 02:52:47;;;;;;;25.70;13.40;;;;;;;-2.87;98.83;99113.69;4943061;28;20046;-81
2021/01/30 02:55:16;;;;;;;26.27;12.88;;;;;;;-2.71;98.33;99116.66;4957209;28;20062;-82
2021/01/30 02:57:44;;;;;;;22.58;12.18;;;;;;;-2.58;98.27;99128.28;4983692;28;20034;-80
2021/01/30 03:00:17;;;;;;;25.73;12.63;;;;;;;-2.58;98.13;99141.16;4976403;28;20115;-81
2021/01/30 03:02:44;;;;;;;23.67;12.30;;;;;;;-2.56;97.88;99137.66;4970020;28;20073;-81
2021/01/30 03:05:14;;;;;;;27.08;12.93;;;;;;;-2.66;98.33;99140.53;4978005;28;20286;-79
2021/01/30 03:07:59;;;;;;;21.23;12.32;;;;;;;-2.63;98.32;99143.03;4970095;28;20047;-80
2021/01/30 03:10:42;;;;;;;23.08;12.98;;;;;;;-2.65;98.66;99144.84;4986043;28;20138;-80
2021/01/30 03:13:26;;;;;;;24.55;13.50;;;;;;;-2.64;98.49;99161.97;4952806;28;20055;-79
2021/01/30 03:15:59;;;;;;;22.00;11.68;;;;;;;-2.59;98.55;99165.25;4984903;28;20061;-80
2021/01/30 03:18:35;;;;;;;22.58;12.40;;;;;;;-2.43;97.86;99152.75;4953933;28;20058;-80
2021/01/30 03:21:07;;;;;;;24.90;12.13;;;;;;;-2.60;98.37;99161.00;4968152;28;20103;-79
2021/01/30 03:23:35;;;;;;;19.38;11.52;;;;;;;-2.53;98.15;99165.06;4957988;28;20070;-79
2021/01/30 03:26:05;;;;;;;26.10;12.25;;;;;;;-2.38;97.07;99184.41;4989449;28;20046;-80
2021/01/30 03:28:32;;;;;;;19.48;10.57;;;;;;;-2.58;97.68;99178.06;4981994;28;20047;-80
2021/01/30 03:31:02;;;;;;;22.40;11.65;;;;;;;-2.51;98.13;99188.22;4986458;28;20388;-80
2021/01/30 03:33:29;;;;;;;19.50;10.68;;;;;;;-2.49;98.02;99195.00;4962002;28;20050;-81
2021/01/30 03:35:56;;;;;;;21.80;10.38;;;;;;;-2.47;97.53;99192.41;4988358;28;20890;-79
2021/01/30 03:38:22;;;;;;;19.90;11.13;;;;;;;-2.50;97.84;99195.91;4952860;28;20585;-80
2021/01/30 03:40:49;;;;;;;17.42;10.20;;;;;;;-2.45;97.48;99194.03;4967323;28;20061;-78
2021/01/30 03:43:17;;;;;;;18.65;10.45;;;;;;;-2.44;97.54;99200.03;4966785;28;20169;-79
2021/01/30 03:45:44;;;;;;;18.17;10.18;;;;;;;-2.37;97.04;99210.13;4969434;28;20061;-80
2021/01/30 03:48:11;;;;;;;17.50;8.82;;;;;;;-2.49;97.84;99218.19;4966153;28;20078;-80
2021/01/30 03:50:38;;;;;;;24.35;10.18;;;;;;;-2.50;98.20;99220.81;4963058;28;20051;-80
2021/01/30 03:53:07;;;;;;;22.88;10.40;;;;;;;-2.50;97.96;99231.97;4966966;28;20054;-80
2021/01/30 03:55:35;;;;;;;16.83;10.10;;;;;;;-2.57;97.90;99243.31;4975742;28;20035;-81
2021/01/30 03:58:04;;;;;;;19.88;10.75;;;;;;;-2.51;98.58;99235.44;4964461;28;20066;-79
2021/01/30 04:00:31;;;;;;;19.70;10.23;;;;;;;-2.46;98.34;99236.16;4982651;28;20153;-78
2021/01/30 04:03:00;;;;;;;21.33;10.65;;;;;;;-2.47;98.24;99237.06;4973545;28;20055;-79
2021/01/30 04:05:28;;;;;;;18.05;9.55;;;;;;;-2.49;98.76;99254.28;4973170;28;20078;-79
2021/01/30 04:07:57;;;;;;;17.92;9.95;;;;;;;-2.41;98.15;99259.22;4970348;28;20051;-79
2021/01/30 04:10:28;;;;;;;17.63;11.23;;;;;;;-2.34;97.90;99259.00;4952095;28;20513;-79
2021/01/30 04:12:57;;;;;;;16.98;10.35;;;;;;;-2.35;97.68;99262.44;4954025;28;21070;-80
2021/01/30 04:15:30;;;;;;;22.60;11.57;;;;;;;-2.30;97.99;99264.91;4975781;28;20057;-79
2021/01/30 04:17:59;;;;;;;24.85;11.98;;;;;;;-2.34;97.79;99269.31;4976556;28;20049;-79
2021/01/30 04:20:26;;;;;;;26.33;12.93;;;;;;;-2.44;98.66;99272.19;4966246;28;20127;-79
2021/01/30 04:22:54;;;;;;;20.98;12.13;;;;;;;-2.29;98.94;99274.34;4987165;28;20074;-81
2021/01/30 04:25:25;;;;;;;22.65;12.30;;;;;;;-2.22;98.81;99269.84;4992259;28;20119;-81
2021/01/30 04:27:52;;;;;;;20.90;11.75;;;;;;;-2.24;98.31;99266.47;4993701;28;20018;-80
2021/01/30 04:30:22;;;;;;;22.95;13.63;;;;;;;-2.43;98.88;99273.88;5005769;28;20117;-79
2021/01/30 04:32:49;;;;;;;24.13;11.95;;;;;;;-2.41;99.08;99266.94;4985274;28;20111;-81
2021/01/30 04:35:20;;;;;;;25.08;13.18;;;;;;;-2.38;99.08;99278.03;4974814;28;20050;-78
2021/01/30 04:37:47;;;;;;;25.98;12.88;;;;;;;-2.35;98.79;99284.81;4957469;28;20097;-77
2021/01/30 04:40:39;;;;;;;24.17;12.90;;;;;;;-2.23;98.49;99279.31;4971896;28;20062;-80
2021/01/30 04:43:21;;;;;;;27.30;13.52;;;;;;;-2.16;98.42;99280.84;4960482;28;20106;-80
2021/01/30 04:46:06;;;;;;;28.05;13.32;;;;;;;-2.05;97.81;99281.38;4972457;28;20069;-79
2021/01/30 04:48:53;;;;;;;27.55;13.18;;;;;;;-2.24;98.38;99280.22;4971733;28;20065;-79
2021/01/30 04:51:33;;;;;;;26.98;13.55;;;;;;;-2.39;99.52;99285.78;4955215;28;20130;-79
2021/01/30 04:54:29;;;;;;;32.03;14.57;;;;;;;-2.24;98.79;99280.22;4973084;28;20059;-79
2021/01/30 04:57:01;;;;;;;27.52;13.73;;;;;;;-2.21;98.73;99287.00;4977894;28;20070;-79
2021/01/30 04:59:54;;;;;;;28.02;13.45;;;;;;;-2.19;98.01;99292.97;4982696;28;20051;-78
2021/01/30 05:02:49;;;;;;;33.35;16.08;;;;;;;-2.28;98.94;99299.22;4957275;28;20164;-79
2021/01/30 05:05:20;;;;;;;30.90;15.98;;;;;;;-2.29;98.92;99297.53;4973991;28;20097;-78
2021/01/30 05:07:52;;;;;;;36.67;16.80;;;;;;;-2.31;99.19;99300.16;4972749;28;20041;-79
2021/01/30 05:10:40;;;;;;;32.08;15.02;;;;;;;-2.26;98.98;99307.75;4951506;28;20074;-79
2021/01/30 05:13:16;;;;;;;40.17;16.88;;;;;;;-2.27;99.31;99316.38;4971218;28;20065;-77
2021/01/30 05:15:50;;;;;;;34.22;17.13;;;;;;;-2.23;99.38;99319.72;4971547;28;20110;-80
2021/01/30 05:18:27;;;;;;;30.67;16.23;;;;;;;-2.23;99.41;99323.13;4973541;28;21322;-79
2021/01/30 05:21:34;;;;;;;32.72;17.60;;;;;;;-2.38;99.60;99332.16;4962347;28;20043;-79
2021/01/30 05:24:01;;;;;;;35.67;16.88;;;;;;;-2.25;99.89;99326.63;4979777;28;20042;-80
2021/01/30 05:26:57;;;;;;;38.08;18.10;;;;;;;-2.18;99.57;99333.31;4982798;28;21125;-78
2021/01/30 05:30:01;;;;;;;39.93;19.30;;;;;;;-2.17;99.68;99335.00;4978166;28;20134;-79
2021/01/30 05:32:31;;;;;;;34.72;17.25;;;;;;;-2.23;99.84;99336.03;4962583;28;20054;-80
2021/01/30 05:35:26;;;;;;;37.15;18.45;;;;;;;-2.08;99.47;99337.31;4970424;28;20047;-79
2021/01/30 05:37:58;;;;;;;31.35;16.73;;;;;;;-2.00;99.42;99339.69;4972597;28;20121;-77
2021/01/30 05:40:44;;;;;;;40.55;18.45;;;;;;;-2.13;99.28;99347.78;4952755;28;20057;-79
2021/01/30 05:43:21;;;;;;;41.83;19.77;;;;;;;-2.32;100.00;99355.16;4974123;28;20054;-78
2021/01/30 05:45:55;;;;;;;38.55;18.38;;;;;;;-2.19;100.00;99363.41;4954517;28;20043;-78
2021/01/30 05:48:46;;;;;;;43.78;19.65;;;;;;;-2.18;100.00;99365.09;4970358;28;20070;-79
2021/01/30 05:51:38;;;;;;;41.30;18.98;;;;;;;-2.18;100.00;99369.41;4943936;28;20134;-79
2021/01/30 05:54:12;;;;;;;41.47;18.67;;;;;;;-2.10;99.93;99377.78;4979450;28;20039;-79
2021/01/30 05:56:41;;;;;;;37.03;18.77;;;;;;;-2.08;100.00;99384.59;4974183;28;20062;-78
2021/01/30 05:59:24;;;;;;;36.13;17.52;;;;;;;-2.10;99.68;99378.63;4984119;28;20098;-79
2021/01/30 06:02:16;;;;;;;44.53;19.83;;;;;;;-2.05;99.74;99396.56;4990347;28;20037;-79
2021/01/30 06:04:43;;;;;;;42.35;18.73;;;;;;;-2.08;100.00;99405.22;4974173;28;20094;-78
2021/01/30 06:07:22;;;;;;;44.78;20.13;;;;;;;-2.16;100.00;99408.88;4975836;28;20070;-78
2021/01/30 06:09:50;;;;;;;38.95;18.65;;;;;;;-2.01;100.00;99405.91;4978856;28;20074;-78
2021/01/30 06:12:24;;;;;;;42.20;19.48;;;;;;;-2.05;100.00;99407.72;4975927;28;20070;-79
2021/01/30 06:14:54;;;;;;;41.13;19.52;;;;;;;-2.19;100.00;99417.56;4957172;28;20041;-78
2021/01/30 06:17:21;;;;;;;40.72;20.33;;;;;;;-2.17;100.00;99420.09;4980865;28;20050;-78
2021/01/30 06:20:17;;;;;;;48.78;22.65;;;;;;;-2.26;100.00;99423.75;4986033;28;20045;-79
2021/01/30 06:22:46;;;;;;;47.20;21.53;;;;;;;-2.18;100.00;99428.72;4987766;28;20047;-80
2021/01/30 06:25:36;;;;;;;42.80;19.90;;;;;;;-2.14;100.00;99448.38;4981466;28;20474;-79
2021/01/30 06:28:15;;;;;;;49.88;21.25;;;;;;;-2.13;100.00;99448.31;4978935;28;20042;-78
2021/01/30 06:30:44;;;;;;;48.42;20.80;;;;;;;-2.26;100.00;99451.25;4976421;28;20077;-79
2021/01/30 06:33:30;;;;;;;51.92;21.55;;;;;;;-2.26;100.00;99459.84;4978328;28;20069;-79
2021/01/30 06:36:08;;;;;;;44.70;21.20;;;;;;;-2.11;100.00;99463.78;4979027;28;20047;-79
2021/01/30 06:38:41;;;;;;;54.47;23.08;;;;;;;-2.14;100.00;99472.41;4976228;28;20074;-78
2021/01/30 06:41:29;;;;;;;39.60;19.45;;;;;;;-2.18;100.00;99480.28;4961747;28;20059;-79
2021/01/30 06:44:22;;;;;;;40.20;19.27;;;;;;;-2.04;100.00;99488.50;4956384;28;20046;-80
2021/01/30 06:47:14;;;;;;;50.30;19.80;;;;;;;-2.06;100.00;99493.72;4974894;28;20088;-80
2021/01/30 06:49:51;;;;;;;46.03;19.92;;;;;;;-2.02;99.85;99501.38;4979769;28;20051;-78
2021/01/30 06:52:25;;;;;;;43.22;18.65;;;;;;;-2.12;100.00;99509.31;4973081;28;20077;-79
2021/01/30 06:55:08;;;;;;;43.75;18.10;;;;;;;-2.07;100.00;99509.22;4990771;28;20058;-79
2021/01/30 06:57:48;;;;;;;38.47;17.30;;;;;;;-1.86;99.34;99518.97;4980539;28;20100;-78
2021/01/30 07:00:17;;;;;;;34.10;14.98;;;;;;;-1.86;99.01;99528.44;4960635;28;20095;-78
2021/01/30 07:02:50;;;;;;;38.78;16.63;;;;;;;-1.83;98.87;99530.97;4982794;28;20062;-78
2021/01/30 07:05:33;;;;;;;31.17;15.23;;;;;;;-1.74;98.26;99546.19;4981308;28;20101;-79
2021/01/30 07:08:27;;;;;;;31.05;14.68;;;;;;;-1.72;97.63;99552.16;4982859;28;20067;-81
2021/01/30 07:11:27;;;;;;;31.42;14.65;;;;;;;-1.83;98.35;99551.59;4973574;28;20054;-80
2021/01/30 07:14:13;;;;;;;30.27;14.80;;;;;;;-1.78;97.65;99560.06;4971540;28;20512;-80
2021/01/30 07:16:52;;;;;;;24.63;13.32;;;;;;;-1.70;97.35;99568.44;4985835;28;20046;-78
2021/01/30 07:19:34;;;;;;;24.63;12.02;;;;;;;-1.76;97.27;99566.00;4970485;28;20066;-80
2021/01/30 07:22:04;;;;;;;25.42;11.85;;;;;;;-1.71;96.29;99571.06;4970913;28;20863;-79
2021/01/30 07:24:36;;;;;;;23.73;12.52;;;;;;;-1.69;96.03;99574.47;4971287;28;20933;-80
2021/01/30 07:27:11;;;;;;;21.48;11.13;;;;;;;-1.60;96.46;99585.38;4976812;28;20138;-81
2021/01/30 07:30:03;;;;;;;27.58;11.40;;;;;;;-1.41;95.29;99585.75;4975785;28;21569;-80
2021/01/30 07:32:37;;;;;;;19.70;10.90;;;;;;;-1.37;95.21;99589.94;4954703;28;20062;-81
2021/01/30 07:35:48;;;;;;;16.90;10.23;;;;;;;-1.42;94.69;99599.53;4969580;28;20054;-80
2021/01/30 07:38:18;;;;;;;17.35;9.02;;;;;;;-1.30;94.38;99598.38;4990478;28;20054;-80
2021/01/30 07:40:55;;;;;;;20.35;9.77;;;;;;;-1.09;94.02;99591.75;4943746;28;20054;-80
2021/01/30 07:43:38;;;;;;;24.80;10.13;;;;;;;-0.87;92.77;99594.59;4955222;28;20497;-80
2021/01/30 07:46:04;;;;;;;19.75;9.85;;;;;;;-0.83;92.88;99593.59;4956127;28;20081;-80
2021/01/30 07:48:38;;;;;;;19.30;10.25;;;;;;;-0.87;93.10;99598.00;4971090;28;20886;-80
2021/01/30 07:51:15;;;;;;;18.52;10.27;;;;;;;-0.94;92.17;99593.94;4968481;28;20047;-80
2021/01/30 07:53:42;;;;;;;16.13;8.77;;;;;;;-1.02;92.44;99598.47;4971806;28;20512;-80
2021/01/30 07:56:28;;;;;;;17.02;9.23;;;;;;;-0.79;92.26;99598.63;4973971;28;20039;-80
2021/01/30 07:59:34;;;;;;;24.60;9.32;;;;;;;-0.76;91.43;99602.88;4975197;28;20069;-79
2021/01/30 08:02:19;;;;;;;16.23;8.40;;;;;;;-0.71;91.56;99595.84;4994099;28;20067;-80
2021/01/30 08:05:05;;;;;;;12.98;7.75;;;;;;;-0.65;90.20;99593.06;4983249;28;20039;-80
2021/01/30 08:07:55;;;;;;;16.27;8.60;;;;;;;-0.69;90.32;99601.78;4981828;28;20294;-81
2021/01/30 08:10:26;;;;;;;13.38;7.82;;;;;;;-0.79;90.81;99603.81;4978436;28;20501;-80
2021/01/30 08:13:11;;;;;;;14.88;7.70;;;;;;;-0.85;90.70;99597.97;4974858;28;20043;-84
2021/01/30 08:15:51;;;;;;;17.80;8.00;;;;;;;-0.55;90.29;99599.66;4976069;28;20053;-79
2021/01/30 08:18:21;;;;;;;15.68;7.68;;;;;;;-0.74;91.18;99602.84;5000388;28;20043;-80
2021/01/30 08:21:19;;;;;;;15.65;9.00;;;;;;;-0.80;91.71;99603.88;4994915;28;20074;-80
2021/01/30 08:24:18;;;;;;;15.93;9.10;;;;;;;-0.85;92.05;99606.56;4977436;28;20093;-80
2021/01/30 08:26:59;;;;;;;15.45;8.90;;;;;;;-0.73;91.20;99612.28;4984245;28;20039;-78
2021/01/30 08:29:32;;;;;;;20.33;9.00;;;;;;;-0.71;91.41;99613.09;4968229;28;20073;-78
2021/01/30 08:32:25;;;;;;;18.17;10.38;;;;;;;-0.81;91.98;99618.53;4998807;28;20039;-79
2021/01/30 08:34:57;;;;;;;18.05;10.40;;;;;;;-0.58;91.68;99617.84;4986314;28;20152;-79
2021/01/30 08:37:27;;;;;;;21.17;10.75;;;;;;;-0.59;91.39;99620.47;4994663;28;20076;-79
2021/01/30 08:40:10;;;;;;;21.80;10.98;;;;;;;-0.40;91.67;99623.38;4977224;28;20039;-79
2021/01/30 08:42:55;;;;;;;23.33;11.38;;;;;;;-0.34;91.25;99628.34;4996520;28;20055;-78
2021/01/30 08:45:27;;;;;;;26.00;11.10;;;;;;;-0.41;91.29;99637.16;4960790;28;20176;-80
2021/01/30 08:48:09;;;;;;;20.38;10.02;;;;;;;-0.62;92.78;99636.94;4978275;28;20058;-80
2021/01/30 08:50:44;;;;;;;21.42;10.48;;;;;;;-0.10;90.66;99642.25;4972815;28;20038;-82
2021/01/30 08:53:18;;;;;;;16.92;9.23;;;;;;;-0.06;91.32;99639.53;4959325;28;20118;-79
2021/01/30 08:55:45;;;;;;;18.73;9.20;;;;;;;-0.15;90.71;99652.75;4959901;28;20063;-81
2021/01/30 08:58:37;;;;;;;17.35;8.60;;;;;;;-0.25;91.30;99651.34;4973315;28;20081;-78
2021/01/30 09:01:22;;;;;;;16.15;8.93;;;;;;;-0.22;90.97;99661.59;4972412;28;20906;-80
2021/01/30 09:04:00;;;;;;;16.53;9.53;;;;;;;-0.08;91.19;99649.09;4993460;28;20082;-78
2021/01/30 09:06:39;;;;;;;12.40;7.45;;;;;;;0.02;90.14;99649.66;4965566;28;20200;-78
2021/01/30 09:09:21;;;;;;;14.65;8.80;;;;;;;-0.08;89.96;99654.25;4992728;28;20145;-77
2021/01/30 09:11:53;;;;;;;16.35;9.18;;;;;;;-0.33;91.20;99654.16;4976006;28;20038;-79
2021/01/30 09:14:20;;;;;;;25.48;10.10;;;;;;;-0.05;90.98;99646.38;4973254;28;20173;-80
2021/01/30 09:17:06;;;;;;;19.38;9.32;;;;;;;0.42;89.38;99662.16;4987607;28;20050;-79
2021/01/30 09:20:09;;;;;;;16.30;8.20;;;;;;;0.25;88.90;99661.84;4971350;28;20073;-78
2021/01/30 09:22:43;;;;;;;13.20;7.70;;;;;;;0.08;89.73;99659.78;4983317;28;20055;-81
2021/01/30 09:25:38;;;;;;;14.20;7.80;;;;;;;0.10;90.34;99663.19;4977821;28;20047;-78
2021/01/30 09:28:18;;;;;;;20.67;8.32;;;;;;;0.25;90.30;99667.03;4978257;28;20071;-80
2021/01/30 09:30:55;;;;;;;25.70;10.32;;;;;;;0.56;89.22;99669.47;4965016;28;20074;-82
2021/01/30 09:33:33;;;;;;;35.80;9.80;;;;;;;0.87;88.74;99665.84;4968961;28;20055;-80
2021/01/30 09:36:09;;;;;;;18.70;9.15;;;;;;;0.76;88.03;99677.41;4972457;28;20065;-78
2021/01/30 09:38:43;;;;;;;17.20;8.82;;;;;;;0.73;87.68;99681.84;4985024;28;20042;-79
2021/01/30 09:41:12;;;;;;;20.92;8.15;;;;;;;0.88;87.35;99686.50;4967657;28;20046;-81
2021/01/30 09:43:39;;;;;;;14.85;8.25;;;;;;;0.71;87.89;99684.47;4974454;28;20066;-85
2021/01/30 09:46:11;;;;;;;28.33;7.63;;;;;;;0.77;86.67;99688.63;4963124;28;20079;-80
2021/01/30 09:48:40;;;;;;;13.43;6.72;;;;;;;0.23;87.34;99699.88;4962551;28;20074;-81
2021/01/30 09:51:10;;;;;;;17.90;7.20;;;;;;;0.16;88.63;99694.03;4965021;28;20110;-80
2021/01/30 09:53:42;;;;;;;12.27;6.32;;;;;;;0.44;87.97;99700.94;4967740;28;20057;-80
2021/01/30 09:56:16;;;;;;;11.43;6.30;;;;;;;0.83;86.06;99703.13;4971918;28;20125;-81
2021/01/30 09:58:46;;;;;;;11.25;6.40;;;;;;;0.76;85.96;99705.88;4973472;28;20133;-79
2021/01/30 10:01:46;;;;;;;13.52;6.50;;;;;;;0.26;87.99;99707.53;4978552;28;20027;-82
2021/01/30 10:04:20;;;;;;;13.40;5.88;;;;;;;0.35;87.86;99709.84;4960875;28;20080;-81
2021/01/30 10:06:49;;;;;;;10.10;5.75;;;;;;;0.43;86.62;99710.44;4985317;28;20100;-81
2021/01/30 10:09:23;;;;;;;10.65;6.75;;;;;;;0.58;87.67;99706.50;4969768;28;20026;-82
2021/01/30 10:11:58;;;;;;;10.52;6.47;;;;;;;0.73;85.95;99705.16;4977721;28;20094;-80
2021/01/30 10:14:33;;;;;;;13.63;5.07;;;;;;;0.45;86.60;99705.19;4989666;28;20047;-82
2021/01/30 10:17:07;;;;;;;8.63;5.53;;;;;;;1.12;85.30;99702.09;4986849;28;20129;-81
2021/01/30 10:19:35;;;;;;;8.98;5.60;;;;;;;1.50;83.50;99704.19;4985173;28;20057;-81
2021/01/30 10:22:36;;;;;;;12.77;6.22;;;;;;;1.77;81.73;99704.91;4959512;28;20047;-83
2021/01/30 10:25:08;;;;;;;10.27;4.93;;;;;;;1.54;81.97;99701.47;4947721;28;20476;-81
2021/01/30 10:27:35;;;;;;;7.10;4.88;;;;;;;1.60;81.24;99707.28;4940823;28;20047;-82
2021/01/30 10:30:08;;;;;;;9.65;5.50;;;;;;;0.98;84.11;99718.13;4973104;28;20429;-80
2021/01/30 10:32:53;;;;;;;9.40;5.95;;;;;;;1.10;83.69;99709.09;4960269;28;20387;-81
2021/01/30 10:35:29;;;;;;;10.35;4.78;;;;;;;1.65;82.10;99707.09;4974010;28;20062;-81
2021/01/30 10:38:09;;;;;;;9.45;5.85;;;;;;;2.00;80.00;99706.63;4973638;28;20056;-82
2021/01/30 10:40:43;;;;;;;7.75;4.68;;;;;;;1.29;80.88;99712.72;4970839;28;20066;-83
2021/01/30 10:43:21;;;;;;;6.43;4.47;;;;;;;0.95;81.93;99715.66;4981251;28;20050;-82
2021/01/30 10:46:02;;;;;;;6.68;4.40;;;;;;;1.19;81.84;99719.97;4952383;28;20051;-82
2021/01/30 10:48:33;;;;;;;6.80;4.18;;;;;;;1.43;79.58;99715.66;4958107;28;20376;-83
2021/01/30 10:51:06;;;;;;;7.68;4.50;;;;;;;1.99;78.59;99710.13;4973194;28;20047;-84
2021/01/30 10:53:38;;;;;;;9.38;4.10;;;;;;;2.33;76.68;99711.41;4979280;28;20146;-85
2021/01/30 10:56:27;;;;;;;7.00;4.32;;;;;;;1.82;77.43;99706.47;5005674;28;20098;-82
2021/01/30 10:58:58;;;;;;;4.35;3.20;;;;;;;1.38;78.45;99708.97;4962052;28;20064;-81
2021/01/30 11:01:31;;;;;;;7.78;3.72;;;;;;;1.31;78.77;99712.69;4974464;28;20114;-84
2021/01/30 11:04:04;;;;;;;8.63;3.45;;;;;;;1.85;76.51;99719.34;4986157;28;20122;-83
2021/01/30 11:06:42;;;;;;;6.40;3.95;;;;;;;1.64;77.02;99714.03;4964725;28;20061;-83
2021/01/30 11:09:16;;;;;;;5.82;3.47;;;;;;;1.49;76.75;99714.63;4988775;28;20042;-84
2021/01/30 11:11:45;;;;;;;7.53;3.60;;;;;;;1.17;77.19;99720.91;5007445;28;20023;-79
2021/01/30 11:14:25;;;;;;;8.90;4.00;;;;;;;0.93;79.54;99723.47;4975499;28;20091;-84
2021/01/30 11:16:54;;;;;;;5.75;3.90;;;;;;;1.27;79.49;99722.31;4975406;28;20039;-83
2021/01/30 11:19:25;;;;;;;7.07;3.72;;;;;;;1.22;78.52;99724.22;4970559;28;20073;-80
2021/01/30 11:22:15;;;;;;;4.70;3.30;;;;;;;1.26;78.01;99718.88;4983319;28;20049;-79
2021/01/30 11:25:07;;;;;;;4.38;3.08;;;;;;;1.56;76.50;99723.00;4987669;28;20043;-80
2021/01/30 11:27:47;;;;;;;5.40;3.42;;;;;;;1.45;76.98;99721.66;4976769;28;20059;-80
2021/01/30 11:30:23;;;;;;;5.20;2.55;;;;;;;1.31;75.12;99725.66;4972851;28;20656;-80
2021/01/30 11:33:14;;;;;;;3.35;2.33;;;;;;;1.42;74.34;99726.94;4975373;28;20073;-79
2021/01/30 11:35:45;;;;;;;4.10;2.80;;;;;;;1.06;76.75;99726.50;4975227;28;20062;-79
2021/01/30 11:38:14;;;;;;;4.05;2.58;;;;;;;1.54;73.92;99728.25;4971289;28;20082;-78
2021/01/30 11:40:41;;;;;;;3.85;2.55;;;;;;;1.29;76.14;99733.47;4971062;28;20055;-81
2021/01/30 11:43:08;;;;;;;5.22;3.08;;;;;;;1.13;76.24;99734.91;4989574;28;20051;-79
2021/01/30 11:45:35;;;;;;;5.50;3.20;;;;;;;1.34;76.10;99728.13;4979124;28;20889;-82
2021/01/30 11:48:03;;;;;;;7.95;3.33;;;;;;;1.13;77.59;99737.50;4961942;28;20053;-79
2021/01/30 11:50:30;;;;;;;6.90;3.58;;;;;;;1.15;76.45;99730.50;4975185;28;20093;-78
2021/01/30 11:53:17;;;;;;;5.03;3.53;;;;;;;1.04;76.25;99732.63;4970336;28;20139;-80
2021/01/30 11:55:45;;;;;;;6.57;3.92;;;;;;;1.02;78.55;99730.09;4971726;28;20055;-81
2021/01/30 11:58:12;;;;;;;5.68;3.33;;;;;;;0.70;78.46;99731.16;4970175;28;20047;-80
2021/01/30 12:00:41;;;;;;;5.65;3.13;;;;;;;0.92;77.42;99726.13;4958802;28;20058;-80
2021/01/30 12:03:20;;;;;;;6.85;4.13;;;;;;;1.47;76.39;99722.44;4968126;28;20047;-81